Time;durP1;ratioP1;P1;durP2;ratioP2;P2;SDS_P1;SDS_P2;PMS_P1;PMS_P2;Temp;Humidity;BMP_temperature;BMP_pressure;BME280_temperature;BME280_humidity;BME280_pressure;Samples;Min_cycle;Max_cycle;Signal;HPM_P1;HPM_P2
2021/01/31 00:00:50;;;;;;;;;;;;;;;-0.30;86.09;98067.90;1771047;80;22126;-70
2021/01/31 00:03:21;;;;;;;;;;;;;;;-0.30;86.11;98057.52;1774375;80;20480;-69
2021/01/31 00:05:50;;;;;;;;;;;;;;;-0.30;86.14;98059.30;1776856;80;20225;-71
2021/01/31 00:08:19;;;;;;;;;;;;;;;-0.31;86.19;98066.72;1769424;80;20476;-70
2021/01/31 00:10:47;;;;;;;;;;;;;;;-0.32;86.18;98065.06;1760444;80;20241;-70
2021/01/31 00:13:15;;;;;;;;;;;;;;;-0.32;86.21;98070.25;1741714;80;21905;-69
2021/01/31 00:15:45;;;;;;;;;;;;;;;-0.33;86.22;98069.42;1777823;80;20358;-69
2021/01/31 00:18:15;;;;;;;;;;;;;;;-0.33;86.24;98073.78;1762358;80;20296;-69
2021/01/31 00:20:46;;;;;;;;;;;;;;;-0.33;86.26;98078.50;1761326;80;20466;-69
2021/01/31 00:23:13;;;;;;;;;;;;;;;-0.34;86.26;98081.21;1778919;80;20218;-70
2021/01/31 00:25:41;;;;;;;;;;;;;;;-0.34;86.25;98087.70;1766577;80;22054;-70
2021/01/31 00:28:09;;;;;;;;;;;;;;;-0.34;86.27;98087.70;1771118;80;20334;-70
2021/01/31 00:30:38;;;;;;;;;;;;;;;-0.36;86.31;98097.36;1758184;80;20407;-70
2021/01/31 00:33:12;;;;;;;;;;;;;;;-0.37;86.34;98097.83;1781899;80;20466;-70
2021/01/31 00:35:39;;;;;;;;;;;;;;;-0.37;86.38;98110.80;1763492;80;20233;-71
2021/01/31 00:38:08;;;;;;;;;;;;;;;-0.37;86.38;98116.45;1756400;80;22936;-69
2021/01/31 00:40:35;;;;;;;;;;;;;;;-0.36;86.41;98136.27;1760374;80;21311;-70
2021/01/31 00:43:03;;;;;;;;;;;;;;;-0.36;86.44;98128.48;1756515;80;20228;-69
2021/01/31 00:45:31;;;;;;;;;;;;;;;-0.36;86.44;98125.89;1758743;80;20468;-69
2021/01/31 00:47:58;;;;;;;;;;;;;;;-0.35;86.43;98130.14;1769739;80;20663;-69
2021/01/31 00:50:30;;;;;;;;;;;;;;;-0.35;86.45;98133.55;1757461;80;22923;-69
2021/01/31 00:53:01;;;;;;;;;;;;;;;-0.34;86.43;98124.01;1761209;80;20345;-70
2021/01/31 00:55:29;;;;;;;;;;;;;;;-0.34;86.46;98135.68;1779267;80;20297;-69
2021/01/31 00:57:56;;;;;;;;;;;;;;;-0.36;86.46;98129.78;1735565;81;20462;-69
2021/01/31 01:00:31;;;;;;;;;;;;;;;-0.35;86.48;98132.73;1773464;80;20248;-70
2021/01/31 01:03:00;;;;;;;;;;;;;;;-0.34;86.49;98118.82;1751699;80;21800;-69
2021/01/31 01:05:30;;;;;;;;;;;;;;;-0.34;86.51;98122.24;1769313;80;20370;-69
2021/01/31 01:07:58;;;;;;;;;;;;;;;-0.33;86.52;98106.20;1774474;79;20331;-69
2021/01/31 01:10:29;;;;;;;;;;;;;;;-0.32;86.53;98129.44;1775675;80;20258;-69
2021/01/31 01:12:58;;;;;;;;;;;;;;;-0.31;86.55;98134.16;1774203;80;20216;-69
2021/01/31 01:15:26;;;;;;;;;;;;;;;-0.30;86.54;98144.42;1772849;80;22798;-69
2021/01/31 01:17:54;;;;;;;;;;;;;;;-0.28;86.54;98148.23;1764698;80;20213;-69
2021/01/31 01:20:22;;;;;;;;;;;;;;;-0.28;86.56;98140.45;1757416;80;20246;-73
2021/01/31 01:22:50;;;;;;;;;;;;;;;-0.28;86.58;98135.26;1768458;80;21583;-69
2021/01/31 01:25:19;;;;;;;;;;;;;;;-0.27;86.59;98143.87;1789642;80;20223;-69
2021/01/31 01:27:47;;;;;;;;;;;;;;;-0.25;86.59;98144.11;1767302;80;22878;-69
2021/01/31 01:30:18;;;;;;;;;;;;;;;-0.24;86.59;98142.34;1784021;80;21132;-68
2021/01/31 01:32:47;;;;;;;;;;;;;;;-0.22;86.57;98149.54;1769074;80;20236;-69
2021/01/31 01:35:14;;;;;;;;;;;;;;;-0.21;86.57;98148.13;1755976;81;20315;-69
2021/01/31 01:37:43;;;;;;;;;;;;;;;-0.20;86.56;98133.39;1749131;81;20237;-69
2021/01/31 01:40:17;;;;;;;;;;;;;;;-0.18;86.54;98130.24;1760948;81;22038;-68
2021/01/31 01:42:46;;;;;;;;;;;;;;;-0.17;86.53;98132.72;1760645;81;20908;-69
2021/01/31 01:45:14;;;;;;;;;;;;;;;-0.17;86.51;98130.12;1767526;81;20247;-69
2021/01/31 01:47:42;;;;;;;;;;;;;;;-0.16;86.53;98128.36;1760055;81;20467;-68
2021/01/31 01:50:37;;;;;;;;;;;;;;;-0.16;86.50;98131.78;1746865;81;20221;-69
2021/01/31 01:53:05;;;;;;;;;;;;;;;-0.14;86.50;98145.47;1708565;81;22040;-68
2021/01/31 01:55:35;;;;;;;;;;;;;;;-0.11;86.45;98143.11;1729343;81;20229;-71
2021/01/31 01:58:08;;;;;;;;;;;;;;;-0.08;86.42;98151.53;1731186;81;20231;-69
2021/01/31 02:00:35;;;;;;;;;;;;;;;-0.05;86.38;98173.36;1728631;81;20339;-69
2021/01/31 02:03:06;;;;;;;;;;;;;;;-0.02;86.33;98154.14;1765340;81;20264;-69
2021/01/31 02:05:33;;;;;;;;;;;;;;;0.01;86.28;98154.41;1755622;81;22070;-68
2021/01/31 02:08:01;;;;;;;;;;;;;;;0.01;86.24;98164.78;1755881;81;21295;-71
2021/01/31 02:10:28;;;;;;;;;;;;;;;0.03;86.16;98165.50;1739068;81;20291;-69
2021/01/31 02:13:02;;;;;;;;;;;;;;;0.02;86.10;98165.14;1757057;81;20322;-69
2021/01/31 02:15:30;;;;;;;;;;;;;;;0.01;86.04;98179.89;1748867;81;20215;-70
2021/01/31 02:18:19;;;;;;;;;;;;;;;-0.01;85.96;98173.95;1751106;80;22882;-69
2021/01/31 02:21:00;;;;;;;;;;;;;;;-0.03;85.90;98177.13;1742820;81;20259;-69
2021/01/31 02:23:51;;;;;;;;;;;;;;;-0.07;85.89;98197.30;1721662;81;20239;-68
2021/01/31 02:26:39;;;;;;;;;;;;;;;-0.12;85.87;98185.57;1752800;81;20482;-68
2021/01/31 02:29:12;;;;;;;;;;;;;;;-0.17;85.89;98178.13;1755478;81;20323;-68
2021/01/31 02:31:59;;;;;;;;;;;;;;;-0.20;85.92;98169.71;1741838;81;22954;-68
2021/01/31 02:34:48;;;;;;;;;;;;;;;-0.24;85.94;98150.95;1745157;81;20372;-68
2021/01/31 02:37:35;;;;;;;;;;;;;;;-0.25;85.97;98142.81;1750854;81;20218;-68
2021/01/31 02:40:10;;;;;;;;;;;;;;;-0.27;85.99;98178.41;1743060;81;20316;-69
2021/01/31 02:42:49;;;;;;;;;;;;;;;-0.30;86.04;98200.66;1746871;81;20239;-70
2021/01/31 02:45:25;;;;;;;;;;;;;;;-0.32;86.10;98197.34;1743412;81;22077;-69
2021/01/31 02:48:02;;;;;;;;;;;;;;;-0.37;86.17;98206.76;1752388;81;20388;-69
2021/01/31 02:50:33;;;;;;;;;;;;;;;-0.35;86.15;98202.76;1743312;81;20228;-69
2021/01/31 02:53:03;;;;;;;;;;;;;;;-0.32;86.10;98180.02;1743084;81;20471;-69
2021/01/31 02:55:34;;;;;;;;;;;;;;;-0.31;86.05;98218.45;1742453;81;20221;-69
2021/01/31 02:58:11;;;;;;;;;;;;;;;-0.30;85.91;98203.25;1746037;81;22074;-71
2021/01/31 03:00:49;;;;;;;;;;;;;;;-0.30;85.67;98213.62;1743461;81;20261;-68
2021/01/31 03:03:20;;;;;;;;;;;;;;;-0.31;85.58;98221.88;1741951;81;20246;-69
2021/01/31 03:05:50;;;;;;;;;;;;;;;-0.33;85.40;98230.70;1741652;81;20487;-68
2021/01/31 03:08:21;;;;;;;;;;;;;;;-0.35;85.25;98217.85;1753811;81;20239;-68
2021/01/31 03:11:04;;;;;;;;;;;;;;;-0.36;85.19;98220.55;1745063;81;22070;-67
2021/01/31 03:13:49;;;;;;;;;;;;;;;-0.37;85.15;98228.80;1742924;81;20454;-68
2021/01/31 03:16:30;;;;;;;;;;;;;;;-0.40;84.98;98248.91;1754713;81;20215;-69
2021/01/31 03:19:03;;;;;;;;;;;;;;;-0.45;84.73;98241.47;1746143;81;21215;-69
2021/01/31 03:21:31;;;;;;;;;;;;;;;-0.46;84.65;98273.99;1751438;81;20220;-69
2021/01/31 03:24:04;;;;;;;;;;;;;;;-0.53;84.42;98302.56;1742838;81;22840;-68
2021/01/31 03:26:51;;;;;;;;;;;;;;;-0.68;83.84;98300.05;1768530;81;20329;-69
2021/01/31 03:29:19;;;;;;;;;;;;;;;-0.85;82.95;98304.24;1733381;81;20420;-69
2021/01/31 03:31:50;;;;;;;;;;;;;;;-1.04;82.01;98346.53;1743455;81;20547;-69
2021/01/31 03:34:20;;;;;;;;;;;;;;;-1.22;81.87;98350.66;1772828;81;20244;-69
2021/01/31 03:36:50;;;;;;;;;;;;;;;-1.34;81.95;98363.10;1768271;81;21931;-70
2021/01/31 03:39:18;;;;;;;;;;;;;;;-1.48;81.61;98409.72;1736812;81;21164;-70
2021/01/31 03:41:45;;;;;;;;;;;;;;;-1.60;81.49;98373.78;1767553;80;20220;-70
2021/01/31 03:44:12;;;;;;;;;;;;;;;-1.69;81.45;98384.70;1751473;81;20476;-70
2021/01/31 03:46:59;;;;;;;;;;;;;;;-1.79;81.11;98397.37;1765711;81;20219;-70
2021/01/31 03:49:29;;;;;;;;;;;;;;;-1.93;80.25;98399.97;1742269;81;21916;-69
2021/01/31 03:51:56;;;;;;;;;;;;;;;-2.06;79.75;98392.55;1756816;80;20379;-69
2021/01/31 03:54:24;;;;;;;;;;;;;;;-2.17;79.49;98392.37;1757146;80;20391;-70
2021/01/31 03:57:01;;;;;;;;;;;;;;;-2.23;79.46;98417.28;1766581;80;20314;-70
2021/01/31 03:59:41;;;;;;;;;;;;;;;-2.30;79.19;98414.24;1755053;80;20230;-70
2021/01/31 04:02:08;;;;;;;;;;;;;;;-2.33;79.34;98427.33;1769698;80;22039;-69
2021/01/31 04:04:42;;;;;;;;;;;;;;;-2.41;79.02;98436.84;1771428;80;20243;-70
2021/01/31 04:07:10;;;;;;;;;;;;;;;-2.48;78.75;98445.03;1746424;80;20218;-69
2021/01/31 04:09:38;;;;;;;;;;;;;;;-2.55;78.46;98460.51;1746440;80;20259;-68
2021/01/31 04:12:07;;;;;;;;;;;;;;;-2.64;78.04;98482.53;1772463;80;20302;-68
2021/01/31 04:14:48;;;;;;;;;;;;;;;-2.73;77.93;98473.54;1750763;80;22058;-69
2021/01/31 04:17:15;;;;;;;;;;;;;;;-2.79;77.81;98490.70;1755795;80;20242;-69
2021/01/31 04:19:43;;;;;;;;;;;;;;;-2.82;77.85;98509.38;1768042;80;20214;-69
2021/01/31 04:22:11;;;;;;;;;;;;;;;-2.89;77.57;98512.33;1754206;81;20529;-69
2021/01/31 04:24:38;;;;;;;;;;;;;;;-2.94;77.43;98505.27;1754162;81;20218;-69
2021/01/31 04:27:06;;;;;;;;;;;;;;;-2.96;77.55;98511.44;1756460;81;22046;-70
2021/01/31 04:29:34;;;;;;;;;;;;;;;-3.02;77.58;98512.59;1762166;81;22582;-69
2021/01/31 04:32:02;;;;;;;;;;;;;;;-3.01;77.69;98512.13;1756472;81;20273;-69
2021/01/31 04:34:30;;;;;;;;;;;;;;;-3.01;77.85;98517.30;1762167;81;21313;-69
2021/01/31 04:36:57;;;;;;;;;;;;;;;-3.03;77.96;98532.88;1759063;81;20247;-70
2021/01/31 04:39:25;;;;;;;;;;;;;;;-3.07;77.76;98549.47;1753618;81;22127;-70
2021/01/31 04:41:53;;;;;;;;;;;;;;;-3.12;77.45;98544.16;1746728;81;22584;-69
2021/01/31 04:44:21;;;;;;;;;;;;;;;-3.13;77.63;98543.33;1757904;81;20294;-70
2021/01/31 04:46:51;;;;;;;;;;;;;;;-3.13;77.81;98552.83;1759840;81;22625;-70
2021/01/31 04:49:42;;;;;;;;;;;;;;;-3.14;77.86;98557.16;1755484;79;20227;-69
2021/01/31 04:52:16;;;;;;;;;;;;;;;-3.14;77.97;98577.81;1758513;80;22059;-69
2021/01/31 04:55:00;;;;;;;;;;;;;;;-3.21;77.78;98578.58;1761294;81;20401;-69
2021/01/31 04:57:41;;;;;;;;;;;;;;;-3.23;77.98;98595.91;1754131;81;20273;-69
2021/01/31 05:00:16;;;;;;;;;;;;;;;-3.23;78.10;98595.07;1756748;81;20479;-70
2021/01/31 05:02:47;;;;;;;;;;;;;;;-3.26;78.05;98602.98;1748730;81;20214;-69
2021/01/31 05:05:18;;;;;;;;;;;;;;;-3.28;78.14;98606.08;1755914;81;22498;-70
2021/01/31 05:07:58;;;;;;;;;;;;;;;-3.31;78.01;98619.98;1770944;81;20236;-69
2021/01/31 05:10:27;;;;;;;;;;;;;;;-3.33;77.83;98630.85;1750323;81;20216;-69
2021/01/31 05:13:18;;;;;;;;;;;;;;;-3.34;77.81;98650.30;1749799;81;20531;-71
2021/01/31 05:15:53;;;;;;;;;;;;;;;-3.34;77.94;98654.17;1742399;81;20226;-69
2021/01/31 05:18:21;;;;;;;;;;;;;;;-3.34;77.98;98661.45;1755331;81;21979;-69
2021/01/31 05:20:50;;;;;;;;;;;;;;;-3.35;77.76;98670.57;1742892;81;20281;-68
2021/01/31 05:23:18;;;;;;;;;;;;;;;-3.35;77.85;98669.28;1735827;81;20214;-68
2021/01/31 05:25:46;;;;;;;;;;;;;;;-3.36;77.60;98685.69;1766063;81;20432;-68
2021/01/31 05:28:13;;;;;;;;;;;;;;;-3.37;77.73;98681.44;1764190;81;20218;-69
2021/01/31 05:30:44;;;;;;;;;;;;;;;-3.36;77.74;98689.55;1733480;81;22158;-68
2021/01/31 05:33:15;;;;;;;;;;;;;;;-3.39;77.38;98698.72;1735114;81;20371;-69
2021/01/31 05:35:45;;;;;;;;;;;;;;;-3.41;77.26;98706.55;1770172;81;20304;-69
2021/01/31 05:38:13;;;;;;;;;;;;;;;-3.42;77.17;98704.05;1760081;81;20313;-69
2021/01/31 05:40:44;;;;;;;;;;;;;;;-3.43;77.09;98712.70;1752435;81;20502;-69
2021/01/31 05:43:19;;;;;;;;;;;;;;;-3.46;77.05;98726.14;1754474;81;22967;-69
2021/01/31 05:45:47;;;;;;;;;;;;;;;-3.45;77.21;98733.44;1759395;81;20275;-68
2021/01/31 05:48:24;;;;;;;;;;;;;;;-3.43;77.18;98739.80;1744602;81;20222;-68
2021/01/31 05:50:52;;;;;;;;;;;;;;;-3.44;77.22;98742.01;1758246;81;20493;-71
2021/01/31 05:53:29;;;;;;;;;;;;;;;-3.42;77.27;98750.05;1765851;80;20227;-72
2021/01/31 05:56:28;;;;;;;;;;;;;;;-3.43;77.04;98754.83;1781122;80;21898;-72
2021/01/31 05:59:03;;;;;;;;;;;;;;;-3.46;76.98;98769.19;1762550;80;20400;-70
2021/01/31 06:01:30;;;;;;;;;;;;;;;-3.46;77.16;98782.09;1769201;80;20222;-71
2021/01/31 06:04:11;;;;;;;;;;;;;;;-3.44;77.17;98778.14;1764437;80;20466;-70
2021/01/31 06:06:46;;;;;;;;;;;;;;;-3.38;77.23;98780.41;1878670;76;20233;-71
2021/01/31 06:09:23;;;;;;;;;;;;;;;-3.42;77.18;98784.89;1846586;77;20214;-70
2021/01/31 06:11:51;;;;;;;;;;;;;;;-3.41;77.25;98801.22;1845268;77;21892;-73
2021/01/31 06:14:25;;;;;;;;;;;;;;;-3.41;77.26;98807.67;1841134;77;20291;-72
2021/01/31 06:16:58;;;;;;;;;;;;;;;-3.39;77.29;98814.42;1853335;77;20209;-67
2021/01/31 06:19:29;;;;;;;;;;;;;;;-3.40;77.11;98824.83;1826448;77;20218;-70
2021/01/31 06:21:57;;;;;;;;;;;;;;;-3.40;77.21;98832.11;1844546;77;20209;-70
2021/01/31 06:24:47;;;;;;;;;;;;;;;-3.37;77.18;98837.16;1850223;77;21869;-70
2021/01/31 06:27:29;;;;;;;;;;;;;;;-3.34;77.16;98849.07;1851831;77;20364;-68
2021/01/31 06:30:13;;;;;;;;;;;;;;;-3.33;77.12;98855.91;1842731;77;20228;-76
2021/01/31 06:32:41;;;;;;;;;;;;;;;-3.35;76.99;98867.59;1842055;77;20271;-73
2021/01/31 06:35:13;;;;;;;;;;;;;;;-3.34;77.14;98864.11;1835044;77;20284;-75
2021/01/31 06:38:00;;;;;;;;;;;;;;;-3.30;77.22;98871.23;1843258;77;22008;-74
2021/01/31 06:40:59;;;;;;;;;;;;;;;-3.26;77.14;98878.78;1851521;77;20386;-75
2021/01/31 06:43:50;;;;;;;;;;;;;;;-3.26;77.11;98881.37;1850537;77;20228;-75
2021/01/31 06:46:46;;;;;;;;;;;;;;;-3.23;77.09;98882.96;1845701;77;22321;-74
2021/01/31 06:49:52;;;;;;;;;;;;;;;-3.20;77.05;98898.30;1853300;77;20476;-75
2021/01/31 06:52:44;;;;;;;;;;;;;;;-3.21;76.74;98904.37;1857675;77;22134;-74
2021/01/31 06:55:53;;;;;;;;;;;;;;;-3.23;76.38;98907.03;1835695;77;20230;-72
2021/01/31 06:58:23;;;;;;;;;;;;;;;-3.21;76.55;98919.87;1843202;77;20215;-75
2021/01/31 07:00:57;;;;;;;;;;;;;;;-3.13;76.68;98923.39;1856324;77;20222;-74
2021/01/31 07:03:47;;;;;;;;;;;;;;;-3.11;76.53;98926.73;1825862;77;20213;-72
2021/01/31 07:06:21;;;;;;;;;;;;;;;-3.14;76.27;98939.34;1812310;77;22241;-73
2021/01/31 07:09:02;;;;;;;;;;;;;;;-3.13;76.35;98940.17;1850172;77;20250;-73
2021/01/31 07:11:48;;;;;;;;;;;;;;;-3.15;76.10;98945.42;1837945;77;20208;-73
2021/01/31 07:14:28;;;;;;;;;;;;;;;-3.17;75.96;98954.98;1844292;77;20986;-74
2021/01/31 07:17:08;;;;;;;;;;;;;;;-3.16;76.18;98965.70;1839922;77;20713;-73
2021/01/31 07:19:58;;;;;;;;;;;;;;;-3.10;76.21;98983.47;1847298;77;22024;-75
2021/01/31 07:22:36;;;;;;;;;;;;;;;-3.12;75.67;98974.97;1847685;77;20218;-75
2021/01/31 07:25:19;;;;;;;;;;;;;;;-3.12;75.82;98976.71;1846820;77;20221;-72
2021/01/31 07:27:55;;;;;;;;;;;;;;;-3.10;75.98;98977.47;1856553;77;20249;-73
2021/01/31 07:30:25;;;;;;;;;;;;;;;-3.10;75.75;98989.93;1810959;77;20235;-72
2021/01/31 07:33:02;;;;;;;;;;;;;;;-3.11;75.80;98987.42;1852593;77;22060;-72
2021/01/31 07:35:37;;;;;;;;;;;;;;;-3.10;75.96;98987.80;1846956;77;20383;-74
2021/01/31 07:38:11;;;;;;;;;;;;;;;-3.07;75.80;98987.69;1858370;77;20214;-74
2021/01/31 07:40:40;;;;;;;;;;;;;;;-3.04;75.76;98997.86;1852259;77;21104;-73
2021/01/31 07:43:10;;;;;;;;;;;;;;;-3.03;75.65;98997.79;1842663;77;20229;-74
2021/01/31 07:45:37;;;;;;;;;;;;;;;-3.02;75.56;99002.04;1842124;77;21324;-76
2021/01/31 07:48:43;;;;;;;;;;;;;;;-2.97;75.60;99003.14;1845822;77;21249;-72
2021/01/31 07:51:13;;;;;;;;;;;;;;;-2.93;75.54;99017.12;1844246;77;20277;-78
2021/01/31 07:53:42;;;;;;;;;;;;;;;-2.91;75.50;99017.87;1858598;77;20273;-81
2021/01/31 07:56:31;;;;;;;;;;;;;;;-2.87;75.20;99028.93;1854920;77;20281;-75
2021/01/31 07:59:14;;;;;;;;;;;;;;;-2.86;75.29;99029.31;1853189;77;21725;-78
2021/01/31 08:01:50;;;;;;;;;;;;;;;-2.81;75.35;99032.95;1861122;77;21239;-76
2021/01/31 08:04:20;;;;;;;;;;;;;;;-2.73;75.28;99055.41;1854295;77;20214;-79
2021/01/31 08:06:53;;;;;;;;;;;;;;;-2.72;74.64;99055.79;1824788;77;21637;-72
2021/01/31 08:09:30;;;;;;;;;;;;;;;-2.74;74.54;99063.62;1835393;77;20512;-73
2021/01/31 08:12:06;;;;;;;;;;;;;;;-2.73;74.76;99065.75;1850798;77;22114;-77
2021/01/31 08:15:11;;;;;;;;;;;;;;;-2.67;74.71;99080.53;1850437;77;20201;-77
2021/01/31 08:17:55;;;;;;;;;;;;;;;-2.61;74.86;99081.55;1841207;77;20474;-78
2021/01/31 08:20:32;;;;;;;;;;;;;;;-2.52;74.78;99086.72;1851830;77;20254;-84
2021/01/31 08:23:04;;;;;;;;;;;;;;;-2.47;74.38;99091.23;1843848;77;20224;-81
2021/01/31 08:25:33;;;;;;;;;;;;;;;-2.47;74.11;99095.56;1813089;77;22129;-84
2021/01/31 08:28:07;;;;;;;;;;;;;;;-2.44;74.10;99104.01;1843550;77;20430;-84
2021/01/31 08:30:40;;;;;;;;;;;;;;;-2.39;73.79;99104.64;1834133;77;20205;-81
2021/01/31 08:33:28;;;;;;;;;;;;;;;-2.37;73.34;99105.41;1850579;77;20285;-80
2021/01/31 08:35:59;;;;;;;;;;;;;;;-2.35;73.09;99115.21;1833955;77;20212;-83
2021/01/31 08:38:32;;;;;;;;;;;;;;;-2.33;73.01;99126.31;1850786;77;22049;-75
2021/01/31 08:41:03;;;;;;;;;;;;;;;-2.34;72.36;99125.10;1862090;77;20426;-78
2021/01/31 08:43:49;;;;;;;;;;;;;;;-2.38;72.34;99121.83;1852945;77;21064;-80
2021/01/31 08:46:23;;;;;;;;;;;;;;;-2.31;72.53;99132.28;1837379;77;20533;-77
2021/01/31 08:48:55;;;;;;;;;;;;;;;-2.20;72.42;99134.81;1844904;77;20245;-79
2021/01/31 08:51:31;;;;;;;;;;;;;;;-2.18;72.19;99136.41;1851539;77;21878;-78
2021/01/31 08:54:09;;;;;;;;;;;;;;;-2.14;72.10;99143.56;1845870;77;20373;-76
2021/01/31 08:56:42;;;;;;;;;;;;;;;-2.08;72.18;99161.39;1856285;77;20288;-76
2021/01/31 08:59:18;;;;;;;;;;;;;;;-2.08;71.59;99156.22;1847577;76;20209;-76
2021/01/31 09:01:49;;;;;;;;;;;;;;;-2.10;71.78;99155.45;1851558;77;20280;-75
2021/01/31 09:04:17;;;;;;;;;;;;;;;-2.09;71.69;99157.13;1843782;77;22471;-77
2021/01/31 09:06:46;;;;;;;;;;;;;;;-2.09;71.86;99168.77;1852177;77;21436;-76
2021/01/31 09:09:24;;;;;;;;;;;;;;;-2.08;72.06;99168.70;1841784;77;20273;-74
2021/01/31 09:11:58;;;;;;;;;;;;;;;-2.07;72.03;99166.48;1851434;77;20313;-77
2021/01/31 09:14:28;;;;;;;;;;;;;;;-2.01;72.12;99171.84;1817393;77;20252;-76
2021/01/31 09:17:07;;;;;;;;;;;;;;;-1.96;72.09;99173.73;1830637;77;22179;-73
2021/01/31 09:19:35;;;;;;;;;;;;;;;-1.94;72.01;99179.67;1851364;77;20352;-74
2021/01/31 09:22:11;;;;;;;;;;;;;;;-1.93;71.87;99177.92;1834378;77;20279;-74
2021/01/31 09:24:39;;;;;;;;;;;;;;;-1.90;71.79;99187.69;1843718;77;20275;-75
2021/01/31 09:27:08;;;;;;;;;;;;;;;-1.88;71.58;99190.20;1835162;77;20702;-74
2021/01/31 09:29:35;;;;;;;;;;;;;;;-1.88;71.84;99191.04;1840214;77;22048;-75
2021/01/31 09:32:08;;;;;;;;;;;;;;;-1.72;71.74;99191.16;1845792;77;20374;-76
2021/01/31 09:34:36;;;;;;;;;;;;;;;-1.64;71.58;99192.05;1836418;77;20273;-71
2021/01/31 09:37:06;;;;;;;;;;;;;;;-1.57;71.65;99202.50;1813645;77;20285;-77
2021/01/31 09:39:34;;;;;;;;;;;;;;;-1.49;71.57;99202.98;1837607;77;20513;-77
2021/01/31 09:42:03;;;;;;;;;;;;;;;-1.40;71.51;99208.16;1836043;77;22055;-77
2021/01/31 09:44:31;;;;;;;;;;;;;;;-1.40;71.09;99209.00;1848865;77;20248;-75
2021/01/31 09:46:59;;;;;;;;;;;;;;;-1.38;70.91;99216.69;1855225;77;20451;-77
2021/01/31 09:49:27;;;;;;;;;;;;;;;-1.41;70.79;99224.63;1850469;77;20288;-74
2021/01/31 09:52:09;;;;;;;;;;;;;;;-1.46;70.68;99224.83;1848015;77;20260;-73
2021/01/31 09:54:36;;;;;;;;;;;;;;;-1.47;70.05;99236.10;1843847;77;22137;-71
2021/01/31 09:57:06;;;;;;;;;;;;;;;-1.46;70.20;99235.19;1850547;77;20276;-73
2021/01/31 09:59:35;;;;;;;;;;;;;;;-1.45;70.23;99242.91;1844667;77;21082;-73
2021/01/31 10:02:06;;;;;;;;;;;;;;;-1.41;70.29;99251.81;1858235;77;20306;-73
2021/01/31 10:04:34;;;;;;;;;;;;;;;-1.32;70.34;99252.66;1829779;77;20215;-73
2021/01/31 10:07:12;;;;;;;;;;;;;;;-1.25;69.95;99250.16;1858621;76;22112;-71
2021/01/31 10:09:42;;;;;;;;;;;;;;;-1.23;69.25;99243.15;1859325;77;21071;-72
2021/01/31 10:12:14;;;;;;;;;;;;;;;-1.25;69.37;99256.64;1848718;77;20542;-73
2021/01/31 10:14:46;;;;;;;;;;;;;;;-1.18;68.95;99256.70;1852581;77;20262;-77
2021/01/31 10:17:19;;;;;;;;;;;;;;;-1.07;68.50;99267.83;1785377;80;20711;-74
2021/01/31 10:19:47;;;;;;;;;;;;;;;-0.94;68.68;99261.97;1799758;78;22066;-79
2021/01/31 10:22:25;;;;;;;;;;;;;;;-0.84;68.65;99267.53;1779195;79;20363;-79
2021/01/31 10:24:53;;;;;;;;;;;;;;;-0.84;68.12;99261.05;1797341;79;20662;-75
2021/01/31 10:27:28;;;;;;;;;;;;;;;-0.84;68.46;99266.23;1760267;81;20261;-77
2021/01/31 10:29:58;;;;;;;;;;;;;;;-0.81;68.55;99268.66;1788773;79;20237;-77
2021/01/31 10:32:38;;;;;;;;;;;;;;;-0.77;68.83;99270.20;1776189;79;24147;-81
2021/01/31 10:35:34;;;;;;;;;;;;;;;-0.69;68.81;99264.14;1785858;79;20219;-80
2021/01/31 10:38:23;;;;;;;;;;;;;;;-0.64;68.13;99276.89;1770860;79;20271;-80
2021/01/31 10:40:50;;;;;;;;;;;;;;;-0.68;68.70;99281.84;1754877;79;21269;-74
2021/01/31 10:43:19;;;;;;;;;;;;;;;-0.65;68.57;99276.05;1801074;78;20401;-84
2021/01/31 10:45:47;;;;;;;;;;;;;;;-0.57;68.80;99280.02;1755024;81;22002;-79
2021/01/31 10:48:14;;;;;;;;;;;;;;;-0.53;68.49;99288.84;1781782;79;20477;-81
2021/01/31 10:50:41;;;;;;;;;;;;;;;-0.54;68.05;99290.23;1764672;80;20591;-77
2021/01/31 10:53:09;;;;;;;;;;;;;;;-0.70;66.61;99278.03;1787073;79;20998;-82
2021/01/31 10:55:37;;;;;;;;;;;;;;;-0.82;67.25;99296.80;1765061;80;20280;-77
2021/01/31 10:58:05;;;;;;;;;;;;;;;-0.88;67.10;99298.39;1784380;79;22077;-78
2021/01/31 11:00:34;;;;;;;;;;;;;;;-0.96;67.10;99301.39;1764520;79;20374;-77
2021/01/31 11:03:02;;;;;;;;;;;;;;;-0.97;67.63;99305.33;1753627;79;20218;-74
2021/01/31 11:05:30;;;;;;;;;;;;;;;-0.96;67.83;99310.92;1789219;79;20467;-80
2021/01/31 11:07:58;;;;;;;;;;;;;;;-0.92;67.61;99309.84;1772928;80;20238;-81
2021/01/31 11:10:26;;;;;;;;;;;;;;;-0.91;67.58;99323.18;1763684;80;21908;-78
2021/01/31 11:12:55;;;;;;;;;;;;;;;-0.98;67.39;99316.61;1764514;80;20229;-75
2021/01/31 11:15:24;;;;;;;;;;;;;;;-1.01;67.35;99328.44;1765203;80;20260;-77
2021/01/31 11:17:51;;;;;;;;;;;;;;;-1.03;67.18;99322.50;1748998;81;20262;-78
2021/01/31 11:20:19;;;;;;;;;;;;;;;-1.10;66.24;99325.00;1764657;80;20268;-76
2021/01/31 11:22:47;;;;;;;;;;;;;;;-1.15;66.39;99321.34;1763048;80;21901;-83
2021/01/31 11:25:14;;;;;;;;;;;;;;;-1.16;66.72;99316.63;1762313;80;22582;-77
2021/01/31 11:27:42;;;;;;;;;;;;;;;-1.16;66.47;99322.23;1761844;80;20229;-81
2021/01/31 11:30:11;;;;;;;;;;;;;;;-1.17;66.57;99323.98;1753639;80;20309;-79
2021/01/31 11:32:39;;;;;;;;;;;;;;;-1.14;66.59;99336.44;1757314;80;20297;-81
2021/01/31 11:35:09;;;;;;;;;;;;;;;-1.21;66.27;99343.19;1760714;80;21990;-81
2021/01/31 11:37:37;;;;;;;;;;;;;;;-1.28;66.03;99340.50;1765684;80;20370;-78
2021/01/31 11:40:06;;;;;;;;;;;;;;;-1.29;66.28;99336.70;1762827;80;20280;-80
2021/01/31 11:42:35;;;;;;;;;;;;;;;-1.29;65.86;99340.58;1764211;80;20316;-80
2021/01/31 11:45:04;;;;;;;;;;;;;;;-1.32;65.68;99342.87;1761436;80;20297;-80
2021/01/31 11:47:33;;;;;;;;;;;;;;;-1.33;65.42;99342.95;1751780;80;21968;-76
2021/01/31 11:50:04;;;;;;;;;;;;;;;-1.37;65.48;99350.00;1734148;80;20540;-76
2021/01/31 11:52:31;;;;;;;;;;;;;;;-1.41;65.91;99356.25;1763749;80;20217;-75
2021/01/31 11:54:58;;;;;;;;;;;;;;;-1.38;65.73;99361.27;1759234;80;20305;-74
2021/01/31 11:57:25;;;;;;;;;;;;;;;-1.37;65.41;99356.94;1769500;80;20396;-75
2021/01/31 11:59:55;;;;;;;;;;;;;;;-1.30;66.08;99359.63;1769622;80;22071;-75
2021/01/31 12:02:22;;;;;;;;;;;;;;;-1.20;65.23;99362.16;1771077;80;20388;-79
2021/01/31 12:04:50;;;;;;;;;;;;;;;-1.16;65.32;99361.97;1750741;80;20392;-78
2021/01/31 12:07:19;;;;;;;;;;;;;;;-1.10;65.14;99359.98;1764444;80;21337;-75
2021/01/31 12:09:48;;;;;;;;;;;;;;;-1.10;64.98;99360.81;1763917;80;20244;-78
2021/01/31 12:12:15;;;;;;;;;;;;;;;-1.17;64.53;99362.84;1776093;80;21906;-74
2021/01/31 12:14:43;;;;;;;;;;;;;;;-1.29;64.32;99356.96;1779010;80;21204;-78
2021/01/31 12:17:11;;;;;;;;;;;;;;;-1.35;64.08;99362.45;1775366;80;20238;-78
2021/01/31 12:19:39;;;;;;;;;;;;;;;-1.43;64.64;99362.42;1773910;80;20476;-78
2021/01/31 12:22:08;;;;;;;;;;;;;;;-1.46;65.13;99364.22;1770245;80;20464;-78
2021/01/31 12:24:36;;;;;;;;;;;;;;;-1.42;65.03;99364.93;1773021;80;22081;-78
2021/01/31 12:27:04;;;;;;;;;;;;;;;-1.41;65.16;99370.50;1774255;80;20226;-80
2021/01/31 12:29:33;;;;;;;;;;;;;;;-1.35;65.63;99374.11;1767011;80;21012;-76
2021/01/31 12:32:01;;;;;;;;;;;;;;;-1.24;65.84;99369.25;1767082;80;20472;-77
2021/01/31 12:34:28;;;;;;;;;;;;;;;-1.16;65.90;99371.03;1775229;80;20273;-77
2021/01/31 12:36:56;;;;;;;;;;;;;;;-1.12;65.45;99374.30;1770719;80;22156;-79
2021/01/31 12:39:23;;;;;;;;;;;;;;;-1.14;65.45;99374.00;1780580;80;20379;-75
2021/01/31 12:41:50;;;;;;;;;;;;;;;-1.16;65.59;99367.57;1775402;80;20258;-76
2021/01/31 12:44:18;;;;;;;;;;;;;;;-1.13;65.83;99370.04;1775135;80;20313;-75
2021/01/31 12:46:45;;;;;;;;;;;;;;;-1.08;65.96;99378.88;1773986;80;20405;-76
2021/01/31 12:49:12;;;;;;;;;;;;;;;-1.00;66.14;99392.31;1779481;80;22811;-75
2021/01/31 12:51:43;;;;;;;;;;;;;;;-0.97;65.59;99392.16;1769679;80;20564;-76
2021/01/31 12:54:11;;;;;;;;;;;;;;;-1.00;65.37;99394.91;1780608;80;20298;-76
2021/01/31 12:56:39;;;;;;;;;;;;;;;-1.01;65.73;99402.30;1767288;80;20542;-75
2021/01/31 12:59:07;;;;;;;;;;;;;;;-1.05;65.01;99408.09;1778934;80;20246;-76
2021/01/31 13:01:34;;;;;;;;;;;;;;;-1.13;65.26;99419.73;1770281;80;21477;-74
2021/01/31 13:04:02;;;;;;;;;;;;;;;-1.14;65.60;99415.46;1741339;80;21566;-75
2021/01/31 13:06:31;;;;;;;;;;;;;;;-1.11;65.96;99419.20;1773136;80;20214;-75
2021/01/31 13:08:59;;;;;;;;;;;;;;;-1.06;65.85;99424.98;1761906;80;20314;-76
2021/01/31 13:11:26;;;;;;;;;;;;;;;-1.04;65.61;99434.39;1772174;80;20262;-74
2021/01/31 13:13:54;;;;;;;;;;;;;;;-1.07;65.42;99436.27;1777389;80;22082;-72
2021/01/31 13:16:22;;;;;;;;;;;;;;;-1.13;65.55;99436.11;1777937;80;21110;-76